キンシャサ の空港の天気 - METARとTAF

キンシャサ/ヌジリ国際空港 ( FZAA / FIH ) - コンゴ民主共和国 キンシャサ
飛行場実況気象(Metar)
観測時間08/22 17:00 WAT (08/22 16:00 UTC)
風向・風速北 2m/s
視程6000m
天気現象
なし
気温30℃
湿度59%
気圧1011hPa
METARFZAA 221600Z 36004KT 6000 NSC 30/21 Q1011 NOSIG
過去の天気等 Google飛行場航空写真 Wunderground天気予報

過去48時間のMETAR

飛行場予報(TAF)
発表時間: 8/22 12:00 WAT (8/22 11:00 UTC)
予報対象時間: 22日13時 WAT ~ 23日19時 WAT
風向・風速西 4m/s
視程6000m
全天の4割程度の雲 雲底高度 550m
23日6時 WAT ~ 23日9時 WAT に徐々に
風向・風速南南西 2m/s
視程3500m
天気現象もや
23日9時 WAT ~ 23日11時 WAT に徐々に
風向・風速北西 6m/s
視程6000m
天気現象運行に影響にある天気現象が終了
少しの雲 雲底高度 610m
TAF FZAA 221100Z 2212/2318 28008KT 6000 SCT018
BECMG 2305/2308 20004KT 3500 BR
BECMG 2308/2310 32012KT 6000 NSW FEW020